sensor_id;sensor_type;location;lat;lon;timestamp;P1;durP1;ratioP1;P2;durP2;ratioP2
25717;SDS011;13574;52.040;5.692;2023-03-18T00:00:02;12.25;;;7.00;;
25717;SDS011;13574;52.040;5.692;2023-03-18T00:02:33;13.27;;;7.00;;
25717;SDS011;13574;52.040;5.692;2023-03-18T00:05:00;13.13;;;7.03;;
25717;SDS011;13574;52.040;5.692;2023-03-18T00:07:26;11.45;;;7.55;;
25717;SDS011;13574;52.040;5.692;2023-03-18T00:09:52;11.82;;;7.53;;
25717;SDS011;13574;52.040;5.692;2023-03-18T00:12:18;11.50;;;7.30;;
25717;SDS011;13574;52.040;5.692;2023-03-18T00:14:43;12.00;;;7.82;;
25717;SDS011;13574;52.040;5.692;2023-03-18T00:17:09;12.85;;;7.80;;
25717;SDS011;13574;52.040;5.692;2023-03-18T00:19:35;14.00;;;7.47;;
25717;SDS011;13574;52.040;5.692;2023-03-18T00:22:00;13.43;;;7.43;;
25717;SDS011;13574;52.040;5.692;2023-03-18T00:24:26;12.57;;;7.95;;
25717;SDS011;13574;52.040;5.692;2023-03-18T00:26:52;14.48;;;8.52;;
25717;SDS011;13574;52.040;5.692;2023-03-18T00:29:18;14.70;;;7.57;;
25717;SDS011;13574;52.040;5.692;2023-03-18T00:31:44;13.25;;;8.35;;
25717;SDS011;13574;52.040;5.692;2023-03-18T00:34:10;13.52;;;8.13;;
25717;SDS011;13574;52.040;5.692;2023-03-18T00:36:36;13.27;;;7.63;;
25717;SDS011;13574;52.040;5.692;2023-03-18T00:39:02;12.02;;;8.00;;
25717;SDS011;13574;52.040;5.692;2023-03-18T00:41:28;12.82;;;7.82;;
25717;SDS011;13574;52.040;5.692;2023-03-18T00:43:57;13.25;;;8.27;;
25717;SDS011;13574;52.040;5.692;2023-03-18T00:46:33;13.65;;;8.43;;
25717;SDS011;13574;52.040;5.692;2023-03-18T00:49:01;11.93;;;7.40;;
25717;SDS011;13574;52.040;5.692;2023-03-18T00:51:33;12.35;;;7.82;;
25717;SDS011;13574;52.040;5.692;2023-03-18T00:54:02;13.75;;;8.43;;
25717;SDS011;13574;52.040;5.692;2023-03-18T00:56:31;16.40;;;8.40;;
25717;SDS011;13574;52.040;5.692;2023-03-18T00:58:58;14.63;;;8.55;;
25717;SDS011;13574;52.040;5.692;2023-03-18T01:01:25;17.83;;;9.38;;
25717;SDS011;13574;52.040;5.692;2023-03-18T01:03:52;16.23;;;9.18;;
25717;SDS011;13574;52.040;5.692;2023-03-18T01:06:20;16.85;;;8.88;;
25717;SDS011;13574;52.040;5.692;2023-03-18T01:08:49;17.40;;;9.73;;
25717;SDS011;13574;52.040;5.692;2023-03-18T01:11:15;16.38;;;9.18;;
25717;SDS011;13574;52.040;5.692;2023-03-18T01:13:42;16.10;;;9.48;;
25717;SDS011;13574;52.040;5.692;2023-03-18T01:16:08;18.65;;;10.40;;
25717;SDS011;13574;52.040;5.692;2023-03-18T01:18:34;16.05;;;9.63;;
25717;SDS011;13574;52.040;5.692;2023-03-18T01:21:01;17.30;;;10.10;;
25717;SDS011;13574;52.040;5.692;2023-03-18T01:23:28;14.57;;;9.80;;
25717;SDS011;13574;52.040;5.692;2023-03-18T01:25:54;17.70;;;9.82;;
25717;SDS011;13574;52.040;5.692;2023-03-18T01:28:21;14.55;;;9.18;;
25717;SDS011;13574;52.040;5.692;2023-03-18T01:30:48;17.60;;;9.77;;
25717;SDS011;13574;52.040;5.692;2023-03-18T01:33:15;16.95;;;9.65;;
25717;SDS011;13574;52.040;5.692;2023-03-18T01:35:41;16.90;;;9.95;;
25717;SDS011;13574;52.040;5.692;2023-03-18T01:38:07;22.33;;;10.02;;
25717;SDS011;13574;52.040;5.692;2023-03-18T01:40:34;14.82;;;9.73;;
25717;SDS011;13574;52.040;5.692;2023-03-18T01:43:22;16.25;;;9.55;;
25717;SDS011;13574;52.040;5.692;2023-03-18T01:45:51;15.88;;;8.88;;
25717;SDS011;13574;52.040;5.692;2023-03-18T01:48:23;16.65;;;9.93;;
25717;SDS011;13574;52.040;5.692;2023-03-18T01:51:02;17.20;;;9.75;;
25717;SDS011;13574;52.040;5.692;2023-03-18T01:53:32;19.52;;;10.15;;
25717;SDS011;13574;52.040;5.692;2023-03-18T01:56:03;21.33;;;10.55;;
25717;SDS011;13574;52.040;5.692;2023-03-18T01:58:33;21.92;;;10.90;;
25717;SDS011;13574;52.040;5.692;2023-03-18T02:01:04;17.17;;;11.23;;
25717;SDS011;13574;52.040;5.692;2023-03-18T02:03:37;20.23;;;12.73;;
25717;SDS011;13574;52.040;5.692;2023-03-18T02:06:05;14.40;;;10.75;;
25717;SDS011;13574;52.040;5.692;2023-03-18T02:08:31;19.73;;;11.60;;
25717;SDS011;13574;52.040;5.692;2023-03-18T02:10:57;17.50;;;11.50;;
25717;SDS011;13574;52.040;5.692;2023-03-18T02:13:23;18.35;;;11.60;;
25717;SDS011;13574;52.040;5.692;2023-03-18T02:15:51;16.52;;;11.63;;
25717;SDS011;13574;52.040;5.692;2023-03-18T02:18:26;20.73;;;12.05;;
25717;SDS011;13574;52.040;5.692;2023-03-18T02:28:45;23.33;;;13.65;;
25717;SDS011;13574;52.040;5.692;2023-03-18T02:31:13;21.92;;;14.18;;
25717;SDS011;13574;52.040;5.692;2023-03-18T02:33:42;22.15;;;14.18;;
25717;SDS011;13574;52.040;5.692;2023-03-18T02:36:10;20.52;;;13.55;;
25717;SDS011;13574;52.040;5.692;2023-03-18T02:38:40;22.75;;;13.90;;
25717;SDS011;13574;52.040;5.692;2023-03-18T02:41:11;21.50;;;13.65;;
25717;SDS011;13574;52.040;5.692;2023-03-18T02:43:42;18.75;;;13.10;;
25717;SDS011;13574;52.040;5.692;2023-03-18T02:46:17;20.48;;;12.63;;
25717;SDS011;13574;52.040;5.692;2023-03-18T02:49:06;19.58;;;12.52;;
25717;SDS011;13574;52.040;5.692;2023-03-18T02:51:32;21.58;;;13.32;;
25717;SDS011;13574;52.040;5.692;2023-03-18T02:54:03;22.00;;;13.00;;
25717;SDS011;13574;52.040;5.692;2023-03-18T02:56:38;21.45;;;12.93;;
25717;SDS011;13574;52.040;5.692;2023-03-18T02:59:05;20.70;;;12.95;;
25717;SDS011;13574;52.040;5.692;2023-03-18T03:01:32;18.98;;;12.30;;
25717;SDS011;13574;52.040;5.692;2023-03-18T03:03:59;18.58;;;11.05;;
25717;SDS011;13574;52.040;5.692;2023-03-18T03:06:25;21.75;;;12.13;;
25717;SDS011;13574;52.040;5.692;2023-03-18T03:08:51;21.60;;;12.50;;
25717;SDS011;13574;52.040;5.692;2023-03-18T03:11:17;20.05;;;11.90;;
25717;SDS011;13574;52.040;5.692;2023-03-18T03:13:43;21.35;;;11.73;;
25717;SDS011;13574;52.040;5.692;2023-03-18T03:16:10;20.95;;;11.98;;
25717;SDS011;13574;52.040;5.692;2023-03-18T03:18:39;21.10;;;11.18;;
25717;SDS011;13574;52.040;5.692;2023-03-18T03:21:06;23.08;;;12.32;;
25717;SDS011;13574;52.040;5.692;2023-03-18T03:23:32;21.27;;;12.07;;
25717;SDS011;13574;52.040;5.692;2023-03-18T03:25:58;19.80;;;11.90;;
25717;SDS011;13574;52.040;5.692;2023-03-18T03:28:24;21.88;;;11.45;;
25717;SDS011;13574;52.040;5.692;2023-03-18T03:30:51;17.35;;;11.63;;
25717;SDS011;13574;52.040;5.692;2023-03-18T03:33:17;17.63;;;10.73;;
25717;SDS011;13574;52.040;5.692;2023-03-18T03:35:43;22.02;;;11.80;;
25717;SDS011;13574;52.040;5.692;2023-03-18T03:38:09;20.77;;;11.98;;
25717;SDS011;13574;52.040;5.692;2023-03-18T03:40:35;22.83;;;12.10;;
25717;SDS011;13574;52.040;5.692;2023-03-18T03:43:01;22.38;;;12.77;;
25717;SDS011;13574;52.040;5.692;2023-03-18T03:45:28;20.15;;;11.52;;
25717;SDS011;13574;52.040;5.692;2023-03-18T03:47:53;24.35;;;12.40;;
25717;SDS011;13574;52.040;5.692;2023-03-18T03:50:19;21.23;;;11.65;;
25717;SDS011;13574;52.040;5.692;2023-03-18T03:52:46;22.63;;;11.95;;
25717;SDS011;13574;52.040;5.692;2023-03-18T03:55:13;22.33;;;12.18;;
25717;SDS011;13574;52.040;5.692;2023-03-18T03:57:40;19.95;;;11.68;;
25717;SDS011;13574;52.040;5.692;2023-03-18T04:00:07;22.55;;;13.40;;
25717;SDS011;13574;52.040;5.692;2023-03-18T04:02:38;20.60;;;13.32;;
25717;SDS011;13574;52.040;5.692;2023-03-18T04:05:06;23.45;;;14.02;;
25717;SDS011;13574;52.040;5.692;2023-03-18T04:07:32;24.45;;;14.38;;
25717;SDS011;13574;52.040;5.692;2023-03-18T04:09:58;22.63;;;14.30;;
25717;SDS011;13574;52.040;5.692;2023-03-18T04:12:24;32.78;;;15.43;;
25717;SDS011;13574;52.040;5.692;2023-03-18T04:14:50;29.63;;;16.00;;
25717;SDS011;13574;52.040;5.692;2023-03-18T04:17:16;25.88;;;15.32;;
25717;SDS011;13574;52.040;5.692;2023-03-18T04:19:41;24.73;;;16.45;;
25717;SDS011;13574;52.040;5.692;2023-03-18T04:22:07;25.65;;;15.57;;
25717;SDS011;13574;52.040;5.692;2023-03-18T04:24:33;25.73;;;15.98;;
25717;SDS011;13574;52.040;5.692;2023-03-18T04:26:59;28.77;;;16.27;;
25717;SDS011;13574;52.040;5.692;2023-03-18T04:29:25;29.80;;;17.33;;
25717;SDS011;13574;52.040;5.692;2023-03-18T04:31:50;30.77;;;16.77;;
25717;SDS011;13574;52.040;5.692;2023-03-18T04:34:16;29.55;;;16.48;;
25717;SDS011;13574;52.040;5.692;2023-03-18T04:36:42;31.10;;;17.40;;
25717;SDS011;13574;52.040;5.692;2023-03-18T04:39:08;32.70;;;18.13;;
25717;SDS011;13574;52.040;5.692;2023-03-18T04:41:34;30.88;;;17.95;;
25717;SDS011;13574;52.040;5.692;2023-03-18T04:44:01;29.60;;;17.10;;
25717;SDS011;13574;52.040;5.692;2023-03-18T04:46:27;28.58;;;16.50;;
25717;SDS011;13574;52.040;5.692;2023-03-18T04:48:54;31.80;;;17.55;;
25717;SDS011;13574;52.040;5.692;2023-03-18T04:51:20;29.85;;;17.70;;
25717;SDS011;13574;52.040;5.692;2023-03-18T04:53:46;29.45;;;17.30;;
25717;SDS011;13574;52.040;5.692;2023-03-18T04:56:12;34.08;;;18.35;;
25717;SDS011;13574;52.040;5.692;2023-03-18T04:58:38;33.78;;;17.73;;
25717;SDS011;13574;52.040;5.692;2023-03-18T05:01:04;38.22;;;18.38;;
25717;SDS011;13574;52.040;5.692;2023-03-18T05:03:29;32.65;;;18.70;;
25717;SDS011;13574;52.040;5.692;2023-03-18T05:05:55;34.20;;;19.02;;
25717;SDS011;13574;52.040;5.692;2023-03-18T05:08:21;32.65;;;19.27;;
25717;SDS011;13574;52.040;5.692;2023-03-18T05:10:48;31.42;;;18.15;;
25717;SDS011;13574;52.040;5.692;2023-03-18T05:13:14;35.33;;;20.20;;
25717;SDS011;13574;52.040;5.692;2023-03-18T05:15:42;30.88;;;18.15;;
25717;SDS011;13574;52.040;5.692;2023-03-18T05:18:08;35.42;;;19.50;;
25717;SDS011;13574;52.040;5.692;2023-03-18T05:20:34;35.28;;;19.15;;
25717;SDS011;13574;52.040;5.692;2023-03-18T05:23:00;38.22;;;20.05;;
25717;SDS011;13574;52.040;5.692;2023-03-18T05:25:26;37.60;;;19.55;;
25717;SDS011;13574;52.040;5.692;2023-03-18T05:27:52;36.22;;;19.30;;
25717;SDS011;13574;52.040;5.692;2023-03-18T05:30:18;34.00;;;20.25;;
25717;SDS011;13574;52.040;5.692;2023-03-18T05:32:44;41.28;;;20.02;;
25717;SDS011;13574;52.040;5.692;2023-03-18T05:35:11;39.88;;;19.27;;
25717;SDS011;13574;52.040;5.692;2023-03-18T05:37:37;42.92;;;19.88;;
25717;SDS011;13574;52.040;5.692;2023-03-18T05:40:03;38.90;;;20.42;;
25717;SDS011;13574;52.040;5.692;2023-03-18T05:44:59;38.03;;;20.00;;
25717;SDS011;13574;52.040;5.692;2023-03-18T05:47:26;35.97;;;20.70;;
25717;SDS011;13574;52.040;5.692;2023-03-18T05:49:51;38.42;;;19.73;;
25717;SDS011;13574;52.040;5.692;2023-03-18T05:52:17;41.33;;;21.25;;
25717;SDS011;13574;52.040;5.692;2023-03-18T05:54:43;38.60;;;21.20;;
25717;SDS011;13574;52.040;5.692;2023-03-18T05:57:09;41.13;;;21.50;;
25717;SDS011;13574;52.040;5.692;2023-03-18T05:59:35;40.35;;;21.35;;
25717;SDS011;13574;52.040;5.692;2023-03-18T06:02:01;44.70;;;22.13;;
25717;SDS011;13574;52.040;5.692;2023-03-18T06:04:27;37.17;;;22.52;;
25717;SDS011;13574;52.040;5.692;2023-03-18T06:06:53;43.08;;;22.90;;
25717;SDS011;13574;52.040;5.692;2023-03-18T06:09:19;38.00;;;21.17;;
25717;SDS011;13574;52.040;5.692;2023-03-18T06:11:46;43.08;;;22.58;;
25717;SDS011;13574;52.040;5.692;2023-03-18T06:14:12;34.83;;;20.92;;
25717;SDS011;13574;52.040;5.692;2023-03-18T06:16:38;44.00;;;22.52;;
25717;SDS011;13574;52.040;5.692;2023-03-18T06:19:05;42.08;;;22.38;;
25717;SDS011;13574;52.040;5.692;2023-03-18T06:21:32;39.75;;;21.38;;
25717;SDS011;13574;52.040;5.692;2023-03-18T06:23:59;37.83;;;22.30;;
25717;SDS011;13574;52.040;5.692;2023-03-18T06:26:25;37.72;;;22.23;;
25717;SDS011;13574;52.040;5.692;2023-03-18T06:28:54;35.30;;;21.05;;
25717;SDS011;13574;52.040;5.692;2023-03-18T06:31:20;37.90;;;22.45;;
25717;SDS011;13574;52.040;5.692;2023-03-18T06:33:46;44.33;;;22.80;;
25717;SDS011;13574;52.040;5.692;2023-03-18T06:36:12;45.88;;;23.20;;
25717;SDS011;13574;52.040;5.692;2023-03-18T06:38:40;42.28;;;23.23;;
25717;SDS011;13574;52.040;5.692;2023-03-18T06:41:06;43.17;;;23.25;;
25717;SDS011;13574;52.040;5.692;2023-03-18T06:43:32;35.97;;;21.80;;
25717;SDS011;13574;52.040;5.692;2023-03-18T06:45:58;41.05;;;22.23;;
25717;SDS011;13574;52.040;5.692;2023-03-18T06:48:24;40.90;;;22.95;;
25717;SDS011;13574;52.040;5.692;2023-03-18T06:50:50;38.72;;;23.05;;
25717;SDS011;13574;52.040;5.692;2023-03-18T06:53:16;42.38;;;23.05;;
25717;SDS011;13574;52.040;5.692;2023-03-18T06:55:42;38.40;;;22.42;;
25717;SDS011;13574;52.040;5.692;2023-03-18T06:58:07;42.10;;;23.48;;
25717;SDS011;13574;52.040;5.692;2023-03-18T07:00:34;40.72;;;23.55;;
25717;SDS011;13574;52.040;5.692;2023-03-18T07:03:00;42.72;;;23.20;;
25717;SDS011;13574;52.040;5.692;2023-03-18T07:05:26;45.28;;;23.88;;
25717;SDS011;13574;52.040;5.692;2023-03-18T07:07:52;42.22;;;24.33;;
25717;SDS011;13574;52.040;5.692;2023-03-18T07:10:22;40.90;;;23.73;;
25717;SDS011;13574;52.040;5.692;2023-03-18T07:12:49;45.67;;;24.58;;
25717;SDS011;13574;52.040;5.692;2023-03-18T07:15:16;36.88;;;23.08;;
25717;SDS011;13574;52.040;5.692;2023-03-18T07:17:45;43.03;;;23.55;;
25717;SDS011;13574;52.040;5.692;2023-03-18T07:20:10;39.65;;;22.27;;
25717;SDS011;13574;52.040;5.692;2023-03-18T07:22:36;42.45;;;22.60;;
25717;SDS011;13574;52.040;5.692;2023-03-18T07:25:02;37.17;;;22.90;;
25717;SDS011;13574;52.040;5.692;2023-03-18T07:27:28;42.40;;;24.23;;
25717;SDS011;13574;52.040;5.692;2023-03-18T07:29:54;41.08;;;23.63;;
25717;SDS011;13574;52.040;5.692;2023-03-18T07:32:21;39.88;;;23.42;;
25717;SDS011;13574;52.040;5.692;2023-03-18T07:34:47;41.28;;;23.05;;
25717;SDS011;13574;52.040;5.692;2023-03-18T07:37:13;37.08;;;22.65;;
25717;SDS011;13574;52.040;5.692;2023-03-18T07:39:39;33.15;;;21.23;;
25717;SDS011;13574;52.040;5.692;2023-03-18T07:42:07;34.25;;;21.42;;
25717;SDS011;13574;52.040;5.692;2023-03-18T07:44:33;33.13;;;20.63;;
25717;SDS011;13574;52.040;5.692;2023-03-18T07:47:00;29.15;;;19.35;;
25717;SDS011;13574;52.040;5.692;2023-03-18T07:49:27;35.80;;;19.13;;
25717;SDS011;13574;52.040;5.692;2023-03-18T07:51:54;31.35;;;19.55;;
25717;SDS011;13574;52.040;5.692;2023-03-18T07:54:20;32.42;;;19.52;;
25717;SDS011;13574;52.040;5.692;2023-03-18T07:56:47;31.33;;;19.60;;
25717;SDS011;13574;52.040;5.692;2023-03-18T07:59:13;33.15;;;19.92;;
25717;SDS011;13574;52.040;5.692;2023-03-18T08:01:40;28.13;;;18.77;;
25717;SDS011;13574;52.040;5.692;2023-03-18T08:04:06;31.90;;;18.27;;
25717;SDS011;13574;52.040;5.692;2023-03-18T08:06:32;30.48;;;18.40;;
25717;SDS011;13574;52.040;5.692;2023-03-18T08:08:58;33.25;;;18.13;;
25717;SDS011;13574;52.040;5.692;2023-03-18T08:11:24;26.52;;;17.25;;
25717;SDS011;13574;52.040;5.692;2023-03-18T08:13:50;27.08;;;17.45;;
25717;SDS011;13574;52.040;5.692;2023-03-18T08:16:16;27.35;;;17.88;;
25717;SDS011;13574;52.040;5.692;2023-03-18T08:18:42;29.85;;;16.83;;
25717;SDS011;13574;52.040;5.692;2023-03-18T08:21:09;25.25;;;16.52;;
25717;SDS011;13574;52.040;5.692;2023-03-18T08:23:35;26.10;;;15.95;;
25717;SDS011;13574;52.040;5.692;2023-03-18T08:26:02;25.88;;;15.98;;
25717;SDS011;13574;52.040;5.692;2023-03-18T08:28:28;25.40;;;15.80;;
25717;SDS011;13574;52.040;5.692;2023-03-18T08:30:54;21.98;;;14.20;;
25717;SDS011;13574;52.040;5.692;2023-03-18T08:33:24;22.10;;;15.30;;
25717;SDS011;13574;52.040;5.692;2023-03-18T08:35:52;22.30;;;15.10;;
25717;SDS011;13574;52.040;5.692;2023-03-18T08:38:22;23.70;;;15.32;;
25717;SDS011;13574;52.040;5.692;2023-03-18T08:40:48;27.17;;;14.70;;
25717;SDS011;13574;52.040;5.692;2023-03-18T08:43:15;26.88;;;15.10;;
25717;SDS011;13574;52.040;5.692;2023-03-18T08:45:41;29.35;;;15.50;;
25717;SDS011;13574;52.040;5.692;2023-03-18T08:48:07;23.25;;;15.27;;
25717;SDS011;13574;52.040;5.692;2023-03-18T08:50:33;22.65;;;14.93;;
25717;SDS011;13574;52.040;5.692;2023-03-18T08:52:59;20.58;;;14.13;;
25717;SDS011;13574;52.040;5.692;2023-03-18T08:55:32;26.20;;;14.43;;
25717;SDS011;13574;52.040;5.692;2023-03-18T08:58:01;54.50;;;16.85;;
25717;SDS011;13574;52.040;5.692;2023-03-18T09:00:29;28.77;;;15.32;;
25717;SDS011;13574;52.040;5.692;2023-03-18T09:02:55;22.95;;;13.75;;
25717;SDS011;13574;52.040;5.692;2023-03-18T09:05:21;20.92;;;13.50;;
25717;SDS011;13574;52.040;5.692;2023-03-18T09:07:47;22.08;;;13.27;;
25717;SDS011;13574;52.040;5.692;2023-03-18T09:10:13;22.35;;;12.95;;
25717;SDS011;13574;52.040;5.692;2023-03-18T09:12:41;18.75;;;13.13;;
25717;SDS011;13574;52.040;5.692;2023-03-18T09:15:09;21.35;;;12.77;;
25717;SDS011;13574;52.040;5.692;2023-03-18T09:17:37;20.20;;;14.30;;
25717;SDS011;13574;52.040;5.692;2023-03-18T09:20:04;20.30;;;13.45;;
25717;SDS011;13574;52.040;5.692;2023-03-18T09:22:36;25.20;;;17.45;;
25717;SDS011;13574;52.040;5.692;2023-03-18T09:25:02;20.52;;;14.43;;
25717;SDS011;13574;52.040;5.692;2023-03-18T09:27:28;26.60;;;17.65;;
25717;SDS011;13574;52.040;5.692;2023-03-18T09:29:54;21.52;;;15.73;;
25717;SDS011;13574;52.040;5.692;2023-03-18T09:32:20;22.10;;;14.40;;
25717;SDS011;13574;52.040;5.692;2023-03-18T09:34:46;19.75;;;13.70;;
25717;SDS011;13574;52.040;5.692;2023-03-18T09:37:12;21.90;;;14.70;;
25717;SDS011;13574;52.040;5.692;2023-03-18T09:39:39;21.05;;;14.48;;
25717;SDS011;13574;52.040;5.692;2023-03-18T09:44:44;19.33;;;13.40;;
25717;SDS011;13574;52.040;5.692;2023-03-18T09:52:47;16.27;;;10.82;;
25717;SDS011;13574;52.040;5.692;2023-03-18T09:55:25;15.73;;;10.85;;
25717;SDS011;13574;52.040;5.692;2023-03-18T09:57:59;13.57;;;9.32;;
25717;SDS011;13574;52.040;5.692;2023-03-18T10:00:33;12.00;;;8.30;;
25717;SDS011;13574;52.040;5.692;2023-03-18T10:08:05;11.40;;;7.72;;
25717;SDS011;13574;52.040;5.692;2023-03-18T10:11:04;8.90;;;6.65;;
25717;SDS011;13574;52.040;5.692;2023-03-18T10:16:27;12.90;;;8.45;;
25717;SDS011;13574;52.040;5.692;2023-03-18T10:18:54;12.52;;;8.10;;
25717;SDS011;13574;52.040;5.692;2023-03-18T10:21:41;10.45;;;8.18;;
25717;SDS011;13574;52.040;5.692;2023-03-18T10:26:56;11.35;;;8.35;;
25717;SDS011;13574;52.040;5.692;2023-03-18T10:29:27;11.60;;;8.70;;
25717;SDS011;13574;52.040;5.692;2023-03-18T10:32:05;15.65;;;9.98;;
25717;SDS011;13574;52.040;5.692;2023-03-18T10:34:35;12.95;;;9.30;;
25717;SDS011;13574;52.040;5.692;2023-03-18T10:39:56;14.80;;;10.03;;
25717;SDS011;13574;52.040;5.692;2023-03-18T10:42:26;13.90;;;8.80;;
25717;SDS011;13574;52.040;5.692;2023-03-18T10:44:59;12.77;;;9.90;;
25717;SDS011;13574;52.040;5.692;2023-03-18T10:47:35;13.77;;;10.57;;
25717;SDS011;13574;52.040;5.692;2023-03-18T10:50:11;13.77;;;9.40;;
25717;SDS011;13574;52.040;5.692;2023-03-18T10:52:53;12.43;;;9.05;;
25717;SDS011;13574;52.040;5.692;2023-03-18T10:55:36;12.48;;;8.23;;
25717;SDS011;13574;52.040;5.692;2023-03-18T10:58:17;10.32;;;7.47;;
25717;SDS011;13574;52.040;5.692;2023-03-18T11:00:44;11.82;;;7.53;;
25717;SDS011;13574;52.040;5.692;2023-03-18T11:04:10;10.70;;;7.35;;
25717;SDS011;13574;52.040;5.692;2023-03-18T11:06:14;9.93;;;7.40;;
25717;SDS011;13574;52.040;5.692;2023-03-18T11:08:48;10.93;;;7.22;;
25717;SDS011;13574;52.040;5.692;2023-03-18T11:11:21;11.02;;;7.30;;
25717;SDS011;13574;52.040;5.692;2023-03-18T11:13:53;10.75;;;7.50;;
25717;SDS011;13574;52.040;5.692;2023-03-18T11:16:33;11.00;;;7.80;;
25717;SDS011;13574;52.040;5.692;2023-03-18T11:19:05;9.25;;;6.20;;
25717;SDS011;13574;52.040;5.692;2023-03-18T11:22:08;10.07;;;5.82;;
25717;SDS011;13574;52.040;5.692;2023-03-18T11:24:38;10.50;;;6.22;;
25717;SDS011;13574;52.040;5.692;2023-03-18T11:30:09;11.13;;;6.97;;
25717;SDS011;13574;52.040;5.692;2023-03-18T11:32:35;9.85;;;6.63;;
25717;SDS011;13574;52.040;5.692;2023-03-18T11:35:02;9.45;;;6.05;;
25717;SDS011;13574;52.040;5.692;2023-03-18T11:37:32;8.93;;;5.80;;
25717;SDS011;13574;52.040;5.692;2023-03-18T11:42:38;11.50;;;6.40;;
25717;SDS011;13574;52.040;5.692;2023-03-18T11:45:17;9.25;;;6.10;;
25717;SDS011;13574;52.040;5.692;2023-03-18T11:47:47;10.48;;;6.75;;
25717;SDS011;13574;52.040;5.692;2023-03-18T11:50:20;10.73;;;6.55;;
25717;SDS011;13574;52.040;5.692;2023-03-18T11:55:36;9.38;;;5.13;;
25717;SDS011;13574;52.040;5.692;2023-03-18T12:01:29;18.63;;;12.35;;
25717;SDS011;13574;52.040;5.692;2023-03-18T12:04:18;15.30;;;10.90;;
25717;SDS011;13574;52.040;5.692;2023-03-18T12:10:22;8.35;;;6.10;;
25717;SDS011;13574;52.040;5.692;2023-03-18T12:15:26;8.55;;;4.90;;
25717;SDS011;13574;52.040;5.692;2023-03-18T12:26:26;6.95;;;4.57;;
25717;SDS011;13574;52.040;5.692;2023-03-18T12:34:25;9.05;;;4.30;;
25717;SDS011;13574;52.040;5.692;2023-03-18T12:37:05;7.35;;;3.83;;
25717;SDS011;13574;52.040;5.692;2023-03-18T12:42:50;8.43;;;5.00;;
25717;SDS011;13574;52.040;5.692;2023-03-18T12:45:30;6.75;;;4.63;;
25717;SDS011;13574;52.040;5.692;2023-03-18T12:48:02;8.25;;;4.82;;
25717;SDS011;13574;52.040;5.692;2023-03-18T12:50:37;8.25;;;4.35;;
25717;SDS011;13574;52.040;5.692;2023-03-18T12:53:21;10.27;;;4.72;;
25717;SDS011;13574;52.040;5.692;2023-03-18T12:56:19;10.00;;;5.75;;
25717;SDS011;13574;52.040;5.692;2023-03-18T12:59:07;10.32;;;5.40;;
25717;SDS011;13574;52.040;5.692;2023-03-18T13:01:40;9.40;;;5.50;;
25717;SDS011;13574;52.040;5.692;2023-03-18T13:04:22;10.60;;;4.90;;
25717;SDS011;13574;52.040;5.692;2023-03-18T13:09:26;10.18;;;4.95;;
25717;SDS011;13574;52.040;5.692;2023-03-18T13:12:19;9.35;;;5.35;;
25717;SDS011;13574;52.040;5.692;2023-03-18T13:17:45;11.10;;;6.80;;
25717;SDS011;13574;52.040;5.692;2023-03-18T13:20:29;8.73;;;5.63;;
25717;SDS011;13574;52.040;5.692;2023-03-18T13:30:55;9.48;;;5.22;;
25717;SDS011;13574;52.040;5.692;2023-03-18T13:44:10;13.50;;;3.92;;
25717;SDS011;13574;52.040;5.692;2023-03-18T13:46:41;7.85;;;4.07;;
25717;SDS011;13574;52.040;5.692;2023-03-18T13:49:25;7.32;;;4.18;;
25717;SDS011;13574;52.040;5.692;2023-03-18T13:52:00;8.90;;;4.00;;
25717;SDS011;13574;52.040;5.692;2023-03-18T13:54:37;9.10;;;4.10;;
25717;SDS011;13574;52.040;5.692;2023-03-18T13:58:07;9.90;;;4.32;;
25717;SDS011;13574;52.040;5.692;2023-03-18T14:00:23;8.52;;;4.43;;
25717;SDS011;13574;52.040;5.692;2023-03-18T14:03:14;9.30;;;4.47;;
25717;SDS011;13574;52.040;5.692;2023-03-18T14:05:50;9.48;;;4.28;;
25717;SDS011;13574;52.040;5.692;2023-03-18T14:21:34;9.23;;;4.55;;
25717;SDS011;13574;52.040;5.692;2023-03-18T14:26:41;11.43;;;5.20;;
25717;SDS011;13574;52.040;5.692;2023-03-18T14:29:27;10.88;;;4.57;;
25717;SDS011;13574;52.040;5.692;2023-03-18T14:32:02;12.80;;;5.03;;
25717;SDS011;13574;52.040;5.692;2023-03-18T14:34:33;9.27;;;5.10;;
25717;SDS011;13574;52.040;5.692;2023-03-18T14:37:18;8.98;;;5.07;;
25717;SDS011;13574;52.040;5.692;2023-03-18T14:39:49;9.57;;;4.63;;
25717;SDS011;13574;52.040;5.692;2023-03-18T14:42:26;9.35;;;5.00;;
25717;SDS011;13574;52.040;5.692;2023-03-18T14:45:22;11.27;;;5.00;;
25717;SDS011;13574;52.040;5.692;2023-03-18T14:51:02;10.52;;;4.93;;
25717;SDS011;13574;52.040;5.692;2023-03-18T14:56:41;8.25;;;5.28;;
25717;SDS011;13574;52.040;5.692;2023-03-18T14:59:17;8.95;;;4.82;;
25717;SDS011;13574;52.040;5.692;2023-03-18T15:01:47;10.23;;;4.95;;
25717;SDS011;13574;52.040;5.692;2023-03-18T15:04:19;8.40;;;4.90;;
25717;SDS011;13574;52.040;5.692;2023-03-18T15:06:48;10.77;;;4.57;;
25717;SDS011;13574;52.040;5.692;2023-03-18T15:09:22;8.80;;;4.80;;
25717;SDS011;13574;52.040;5.692;2023-03-18T15:11:52;7.40;;;5.10;;
25717;SDS011;13574;52.040;5.692;2023-03-18T15:14:23;7.32;;;4.70;;
25717;SDS011;13574;52.040;5.692;2023-03-18T15:17:00;8.70;;;4.50;;
25717;SDS011;13574;52.040;5.692;2023-03-18T15:19:28;8.27;;;4.57;;
25717;SDS011;13574;52.040;5.692;2023-03-18T15:21:55;9.85;;;4.97;;
25717;SDS011;13574;52.040;5.692;2023-03-18T15:24:25;7.75;;;3.78;;
25717;SDS011;13574;52.040;5.692;2023-03-18T15:27:04;6.63;;;3.60;;
25717;SDS011;13574;52.040;5.692;2023-03-18T15:29:42;5.95;;;3.00;;
25717;SDS011;13574;52.040;5.692;2023-03-18T15:32:17;5.75;;;3.40;;
25717;SDS011;13574;52.040;5.692;2023-03-18T15:34:55;4.65;;;2.45;;
25717;SDS011;13574;52.040;5.692;2023-03-18T15:37:41;5.32;;;3.15;;
25717;SDS011;13574;52.040;5.692;2023-03-18T15:42:58;5.78;;;2.38;;
25717;SDS011;13574;52.040;5.692;2023-03-18T15:45:34;5.35;;;2.33;;
25717;SDS011;13574;52.040;5.692;2023-03-18T15:48:10;5.85;;;2.40;;
25717;SDS011;13574;52.040;5.692;2023-03-18T15:50:56;6.13;;;2.60;;
25717;SDS011;13574;52.040;5.692;2023-03-18T15:53:27;4.45;;;2.17;;
25717;SDS011;13574;52.040;5.692;2023-03-18T15:56:18;4.68;;;2.70;;
25717;SDS011;13574;52.040;5.692;2023-03-18T15:58:56;5.75;;;2.50;;
25717;SDS011;13574;52.040;5.692;2023-03-18T16:01:40;4.88;;;2.70;;
25717;SDS011;13574;52.040;5.692;2023-03-18T16:04:10;6.95;;;2.85;;
25717;SDS011;13574;52.040;5.692;2023-03-18T16:06:39;6.15;;;2.70;;
25717;SDS011;13574;52.040;5.692;2023-03-18T16:09:18;6.25;;;2.80;;
25717;SDS011;13574;52.040;5.692;2023-03-18T16:11:52;5.07;;;2.60;;
25717;SDS011;13574;52.040;5.692;2023-03-18T16:14:23;7.68;;;4.30;;
25717;SDS011;13574;52.040;5.692;2023-03-18T16:16:52;5.80;;;2.47;;
25717;SDS011;13574;52.040;5.692;2023-03-18T16:19:25;4.32;;;1.98;;
25717;SDS011;13574;52.040;5.692;2023-03-18T16:21:52;4.00;;;1.70;;
25717;SDS011;13574;52.040;5.692;2023-03-18T16:24:20;3.20;;;1.73;;
25717;SDS011;13574;52.040;5.692;2023-03-18T16:26:46;3.63;;;1.75;;
25717;SDS011;13574;52.040;5.692;2023-03-18T16:29:16;2.80;;;1.63;;
25717;SDS011;13574;52.040;5.692;2023-03-18T16:31:47;3.85;;;1.83;;
25717;SDS011;13574;52.040;5.692;2023-03-18T16:34:14;4.38;;;1.90;;
25717;SDS011;13574;52.040;5.692;2023-03-18T16:36:41;2.97;;;1.70;;
25717;SDS011;13574;52.040;5.692;2023-03-18T16:39:12;5.32;;;2.13;;
25717;SDS011;13574;52.040;5.692;2023-03-18T16:44:09;4.78;;;1.90;;